Time;durP1;ratioP1;P1;durP2;ratioP2;P2;SDS_P1;SDS_P2;PMS_P1;PMS_P2;Temp;Humidity;BMP_temperature;BMP_pressure;BME280_temperature;BME280_humidity;BME280_pressure;Samples;Min_cycle;Max_cycle;Signal;HPM_P1;HPM_P2
2022/12/11 00:00:15;;;;;;;100.70;38.95;;;;;;;;;;5067863;28;20036;-66
2022/12/11 00:02:41;;;;;;;82.25;34.33;;;;;;;;;;5069040;28;20092;-66
2022/12/11 00:05:07;;;;;;;74.10;28.35;;;;;;;;;;5076907;23;20113;-66
2022/12/11 00:07:33;;;;;;;67.55;29.45;;;;;;;;;;5031234;28;20029;-63
2022/12/11 00:09:59;;;;;;;95.70;35.53;;;;;;;;;;5031184;28;20025;-64
2022/12/11 00:12:25;;;;;;;88.82;33.67;;;;;;;;;;5031247;28;20029;-64
2022/12/11 00:14:51;;;;;;;98.97;37.03;;;;;;;;;;5027942;28;20030;-65
2022/12/11 00:17:17;;;;;;;85.60;37.10;;;;;;;;;;5033121;28;20084;-65
2022/12/11 00:19:43;;;;;;;99.95;38.95;;;;;;;;;;5032456;28;20034;-66
2022/12/11 00:22:09;;;;;;;85.00;30.20;;;;;;;;;;5031901;28;20040;-65
2022/12/11 00:24:35;;;;;;;93.25;32.65;;;;;;;;;;5031835;28;20113;-65
2022/12/11 00:27:01;;;;;;;97.20;37.25;;;;;;;;;;5033358;28;20496;-66
2022/12/11 00:29:27;;;;;;;107.43;38.75;;;;;;;;;;5033363;28;20033;-65
2022/12/11 00:31:53;;;;;;;90.03;35.03;;;;;;;;;;5031805;28;20128;-65
2022/12/11 00:34:19;;;;;;;94.03;36.25;;;;;;;;;;5032726;28;20029;-65
2022/12/11 00:36:45;;;;;;;101.38;38.42;;;;;;;;;;5032050;28;20398;-66
2022/12/11 00:39:12;;;;;;;106.28;38.30;;;;;;;;;;5033051;28;20025;-66
2022/12/11 00:41:38;;;;;;;107.47;39.13;;;;;;;;;;5031934;28;20115;-66
2022/12/11 00:44:04;;;;;;;88.30;38.53;;;;;;;;;;5032956;28;20552;-66
2022/12/11 00:46:30;;;;;;;97.05;38.95;;;;;;;;;;5032972;28;20450;-65
2022/12/11 00:48:56;;;;;;;108.72;41.53;;;;;;;;;;5031457;28;20393;-65
2022/12/11 00:51:22;;;;;;;98.20;40.55;;;;;;;;;;5032643;28;20032;-65
2022/12/11 00:53:48;;;;;;;94.50;36.78;;;;;;;;;;5032853;28;20470;-66
2022/12/11 00:56:24;;;;;;;91.57;38.10;;;;;;;;;;5032559;28;20059;-65
2022/12/11 00:58:50;;;;;;;92.70;37.30;;;;;;;;;;5031605;28;20474;-66
2022/12/11 01:01:21;;;;;;;98.60;35.45;;;;;;;;;;5032731;28;20112;-66
2022/12/11 01:03:47;;;;;;;97.13;32.00;;;;;;;;;;5031251;28;20116;-64
2022/12/11 01:06:17;;;;;;;94.78;38.20;;;;;;;;;;5031020;28;20085;-66
2022/12/11 01:08:44;;;;;;;101.30;38.08;;;;;;;;;;5032525;28;20474;-64
2022/12/11 01:11:11;;;;;;;95.90;37.03;;;;;;;;;;5032769;28;20087;-65
2022/12/11 01:13:38;;;;;;;91.47;34.35;;;;;;;;;;5031228;28;20392;-66
2022/12/11 01:16:08;;;;;;;82.18;31.83;;;;;;;;;;5032120;28;20187;-64
2022/12/11 01:18:35;;;;;;;86.57;34.20;;;;;;;;;;5032249;28;20030;-67
2022/12/11 01:21:04;;;;;;;91.85;32.42;;;;;;;;;;5032364;28;20029;-65
2022/12/11 01:23:30;;;;;;;79.00;31.60;;;;;;;;;;5032227;28;20468;-66
2022/12/11 01:25:56;;;;;;;80.32;30.02;;;;;;;;;;5032344;28;20109;-64
2022/12/11 01:28:22;;;;;;;76.15;31.45;;;;;;;;;;5031868;28;20048;-64
2022/12/11 01:30:48;;;;;;;74.43;28.88;;;;;;;;;;5032173;28;20466;-64
2022/12/11 01:33:14;;;;;;;68.80;30.25;;;;;;;;;;5032421;28;20021;-65
2022/12/11 01:35:40;;;;;;;68.38;28.92;;;;;;;;;;5032224;28;20469;-63
2022/12/11 01:38:06;;;;;;;80.90;33.22;;;;;;;;;;5031251;28;20022;-63
2022/12/11 01:40:32;;;;;;;79.15;32.60;;;;;;;;;;5031075;28;20543;-64
2022/12/11 01:42:58;;;;;;;75.68;32.30;;;;;;;;;;5032213;28;20037;-65
2022/12/11 01:45:28;;;;;;;70.93;29.52;;;;;;;;;;5031872;28;20017;-65
2022/12/11 01:48:14;;;;;;;75.20;31.08;;;;;;;;;;5032310;28;20026;-65
2022/12/11 01:50:51;;;;;;;69.55;27.77;;;;;;;;;;5031687;28;20482;-65
2022/12/11 01:53:22;;;;;;;63.72;25.30;;;;;;;;;;5030533;28;20071;-65
2022/12/11 01:55:49;;;;;;;60.70;25.92;;;;;;;;;;5030937;28;20073;-64
2022/12/11 01:58:15;;;;;;;52.85;23.13;;;;;;;;;;5030619;28;20026;-65
2022/12/11 02:00:41;;;;;;;65.88;26.58;;;;;;;;;;5032057;28;20072;-65
2022/12/11 02:03:08;;;;;;;72.40;26.48;;;;;;;;;;5031863;28;20437;-65
2022/12/11 02:05:34;;;;;;;64.68;28.35;;;;;;;;;;5031024;28;20041;-64
2022/12/11 02:08:01;;;;;;;59.45;26.70;;;;;;;;;;5032319;28;20021;-65
2022/12/11 02:10:36;;;;;;;64.53;25.10;;;;;;;;;;5030877;28;20057;-65
2022/12/11 02:13:09;;;;;;;67.45;28.60;;;;;;;;;;5031634;28;20036;-63
2022/12/11 02:15:41;;;;;;;62.05;27.05;;;;;;;;;;5031787;28;20017;-66
2022/12/11 02:18:14;;;;;;;75.57;28.65;;;;;;;;;;5030592;28;20018;-64
2022/12/11 02:20:43;;;;;;;67.35;28.20;;;;;;;;;;5031896;28;20440;-65
2022/12/11 02:23:12;;;;;;;62.78;26.52;;;;;;;;;;5031534;28;20457;-65
2022/12/11 02:25:47;;;;;;;61.88;28.63;;;;;;;;;;5030522;28;20029;-64
2022/12/11 02:28:13;;;;;;;56.45;25.92;;;;;;;;;;5030496;28;20029;-64
2022/12/11 02:30:40;;;;;;;75.70;29.20;;;;;;;;;;5031546;28;20102;-65
2022/12/11 02:33:07;;;;;;;69.47;29.20;;;;;;;;;;5031364;28;20055;-65
2022/12/11 02:35:35;;;;;;;60.40;27.50;;;;;;;;;;5031551;28;20136;-65
2022/12/11 02:38:03;;;;;;;63.95;27.00;;;;;;;;;;5031906;28;20021;-62
2022/12/11 02:40:30;;;;;;;58.83;27.30;;;;;;;;;;5030157;28;20498;-64
2022/12/11 02:42:57;;;;;;;58.53;24.85;;;;;;;;;;5031601;28;20477;-66
2022/12/11 02:45:23;;;;;;;51.83;23.60;;;;;;;;;;5031341;28;20466;-61
2022/12/11 02:47:50;;;;;;;56.65;23.80;;;;;;;;;;5031537;28;20080;-66
2022/12/11 02:50:17;;;;;;;49.30;21.30;;;;;;;;;;5031510;28;20017;-66
2022/12/11 02:52:44;;;;;;;63.58;25.27;;;;;;;;;;5030204;28;20080;-65
2022/12/11 02:55:11;;;;;;;65.88;26.75;;;;;;;;;;5029765;28;20025;-64
2022/12/11 02:57:40;;;;;;;54.47;25.85;;;;;;;;;;5031537;28;20064;-64
2022/12/11 03:00:08;;;;;;;62.90;26.48;;;;;;;;;;5030182;28;20028;-64
2022/12/11 03:02:34;;;;;;;45.90;23.95;;;;;;;;;;5031373;28;20033;-65
2022/12/11 03:05:00;;;;;;;50.45;25.38;;;;;;;;;;5034631;28;20481;-66
2022/12/11 03:07:29;;;;;;;55.88;24.42;;;;;;;;;;5033878;28;20033;-65
2022/12/11 03:09:55;;;;;;;57.30;29.50;;;;;;;;;;5033737;28;20079;-65
2022/12/11 03:12:29;;;;;;;74.38;30.42;;;;;;;;;;5033618;28;20025;-65
2022/12/11 03:14:55;;;;;;;63.05;26.20;;;;;;;;;;5034438;28;20028;-66
2022/12/11 03:17:22;;;;;;;59.17;27.23;;;;;;;;;;5033499;28;20045;-65
2022/12/11 03:19:54;;;;;;;61.67;28.45;;;;;;;;;;5033544;28;20120;-65
2022/12/11 03:22:32;;;;;;;52.50;26.75;;;;;;;;;;5034469;28;20398;-65
2022/12/11 03:25:02;;;;;;;57.30;27.17;;;;;;;;;;5034449;28;20084;-65
2022/12/11 03:27:54;;;;;;;61.13;24.98;;;;;;;;;;5033473;28;20053;-67
2022/12/11 03:30:23;;;;;;;60.65;26.48;;;;;;;;;;5003215;28;20532;-66
2022/12/11 03:32:52;;;;;;;55.75;23.63;;;;;;;;;;5033061;28;20025;-66
2022/12/11 03:35:20;;;;;;;56.47;25.33;;;;;;;;;;5032884;28;20021;-65
2022/12/11 03:37:46;;;;;;;;;;;;;;;;;;5033620;28;20025;-67
2022/12/11 03:40:15;;;;;;;46.92;22.50;;;;;;;;;;5033202;28;19916;-63
2022/12/11 03:42:42;;;;;;;47.40;23.35;;;;;;;;;;5034031;28;20024;-64
2022/12/11 03:45:08;;;;;;;66.22;23.55;;;;;;;;;;5032543;28;20064;-64
2022/12/11 03:47:35;;;;;;;58.90;24.63;;;;;;;;;;5033798;28;20032;-63
2022/12/11 03:50:03;;;;;;;51.45;22.60;;;;;;;;;;5034372;28;20056;-65
2022/12/11 03:52:31;;;;;;;57.45;23.42;;;;;;;;;;5032850;28;20508;-64
2022/12/11 03:54:59;;;;;;;54.57;23.37;;;;;;;;;;5033764;28;20037;-64
2022/12/11 03:57:28;;;;;;;45.67;22.20;;;;;;;;;;5032587;28;20029;-65
2022/12/11 03:59:54;;;;;;;49.90;22.63;;;;;;;;;;5032676;28;20022;-65
2022/12/11 04:02:20;;;;;;;50.83;21.60;;;;;;;;;;5032406;28;20421;-65
2022/12/11 04:04:46;;;;;;;52.00;19.63;;;;;;;;;;5033497;28;20025;-65
2022/12/11 04:07:12;;;;;;;52.53;21.88;;;;;;;;;;5032605;28;20060;-64
2022/12/11 04:09:38;;;;;;;49.30;22.40;;;;;;;;;;5032369;28;20519;-65
2022/12/11 04:12:04;;;;;;;51.05;21.60;;;;;;;;;;5032140;28;20037;-65
2022/12/11 04:24:13;;;;;;;50.03;22.25;;;;;;;;;;5033809;28;20140;-64
2022/12/11 04:25:30;;;;;;;52.90;22.88;;;;;;;;;;5033233;28;20041;-66
2022/12/11 04:27:56;;;;;;;54.80;26.05;;;;;;;;;;5033034;28;20076;-64
2022/12/11 04:30:24;;;;;;;62.33;23.95;;;;;;;;;;5031871;28;20029;-66
2022/12/11 04:32:53;;;;;;;51.67;20.73;;;;;;;;;;5033285;28;20021;-66
2022/12/11 04:35:19;;;;;;;;;;;;;;;;;;5033314;28;20280;-66
2022/12/11 04:37:45;;;;;;;45.55;20.27;;;;;;;;;;5033035;28;19905;-66
2022/12/11 04:40:12;;;;;;;52.17;21.40;;;;;;;;;;5033031;28;20028;-65
2022/12/11 04:42:38;;;;;;;45.88;21.10;;;;;;;;;;5031973;28;20667;-63
2022/12/11 04:45:05;;;;;;;53.67;21.17;;;;;;;;;;5031529;28;20036;-65
2022/12/11 04:47:31;;;;;;;47.10;20.90;;;;;;;;;;5033152;28;20025;-67
2022/12/11 04:49:57;;;;;;;52.38;21.67;;;;;;;;;;5031926;28;20524;-66
2022/12/11 04:52:23;;;;;;;49.33;23.80;;;;;;;;;;5033256;28;20026;-66
2022/12/11 04:54:50;;;;;;;44.00;20.23;;;;;;;;;;5032199;28;20636;-65
2022/12/11 04:57:16;;;;;;;43.28;20.90;;;;;;;;;;5032574;28;20021;-67
2022/12/11 04:59:42;;;;;;;41.90;18.05;;;;;;;;;;5032681;28;20037;-67
2022/12/11 05:02:08;;;;;;;52.30;19.25;;;;;;;;;;5032719;28;20470;-66
2022/12/11 05:04:35;;;;;;;45.97;19.20;;;;;;;;;;5032297;28;20038;-66
2022/12/11 05:07:01;;;;;;;44.00;18.27;;;;;;;;;;5033092;28;20025;-64
2022/12/11 05:09:28;;;;;;;42.63;17.90;;;;;;;;;;5037367;28;20022;-64
2022/12/11 05:11:55;;;;;;;44.45;19.08;;;;;;;;;;5036775;28;20029;-65
2022/12/11 05:14:21;;;;;;;41.63;18.73;;;;;;;;;;5032764;28;20030;-65
2022/12/11 05:16:48;;;;;;;47.33;20.27;;;;;;;;;;5032694;28;20504;-65
2022/12/11 05:19:14;;;;;;;43.95;20.95;;;;;;;;;;5031713;28;20033;-65
2022/12/11 05:21:40;;;;;;;45.65;18.80;;;;;;;;;;5033010;28;20445;-65
2022/12/11 05:24:06;;;;;;;47.58;21.92;;;;;;;;;;5032228;28;20037;-65
2022/12/11 05:26:32;;;;;;;47.53;18.98;;;;;;;;;;5031927;28;20584;-65
2022/12/11 05:28:58;;;;;;;42.58;18.38;;;;;;;;;;5032702;28;20108;-65
2022/12/11 05:31:25;;;;;;;49.72;21.02;;;;;;;;;;5032227;28;20033;-64
2022/12/11 05:33:52;;;;;;;45.55;20.52;;;;;;;;;;5030587;28;20030;-65
2022/12/11 05:36:22;;;;;;;46.00;21.00;;;;;;;;;;5032254;28;20021;-64
2022/12/11 05:38:49;;;;;;;50.00;20.77;;;;;;;;;;5032219;28;20022;-66
2022/12/11 05:41:17;;;;;;;48.80;19.85;;;;;;;;;;5032031;28;20029;-65
2022/12/11 05:43:43;;;;;;;52.00;19.35;;;;;;;;;;5032001;28;20025;-64
2022/12/11 05:46:10;;;;;;;44.40;19.00;;;;;;;;;;5030638;28;20401;-64
2022/12/11 05:48:36;;;;;;;43.38;19.85;;;;;;;;;;5031821;28;20551;-64
2022/12/11 05:51:03;;;;;;;39.70;16.98;;;;;;;;;;5032061;28;20079;-64
2022/12/11 05:53:30;;;;;;;44.92;20.60;;;;;;;;;;5031931;28;20091;-64
2022/12/11 05:56:01;;;;;;;43.80;19.40;;;;;;;;;;5032182;28;20022;-64
2022/12/11 05:58:27;;;;;;;44.58;19.02;;;;;;;;;;5032159;28;20736;-65
2022/12/11 06:00:53;;;;;;;42.85;18.40;;;;;;;;;;5030707;28;20029;-64
2022/12/11 06:03:19;;;;;;;42.08;17.48;;;;;;;;;;5030529;28;20036;-65
2022/12/11 06:05:45;;;;;;;43.70;19.35;;;;;;;;;;5045462;23;20580;-66
2022/12/11 06:08:11;;;;;;;44.92;17.13;;;;;;;;;;5025753;28;20057;-67
2022/12/11 06:10:37;;;;;;;40.90;15.45;;;;;;;;;;5007641;28;20402;-65
2022/12/11 06:13:03;;;;;;;36.55;14.20;;;;;;;;;;5008409;28;20026;-67
2022/12/11 06:15:29;;;;;;;42.13;17.60;;;;;;;;;;4991943;28;20372;-67
2022/12/11 06:17:55;;;;;;;39.10;16.40;;;;;;;;;;4993364;28;20025;-67
2022/12/11 06:20:21;;;;;;;38.95;17.02;;;;;;;;;;5010629;28;20022;-67
2022/12/11 06:22:47;;;;;;;42.58;19.95;;;;;;;;;;5010619;28;20106;-67
2022/12/11 06:25:13;;;;;;;41.47;19.40;;;;;;;;;;5010303;28;20088;-67
2022/12/11 06:27:39;;;;;;;43.35;17.65;;;;;;;;;;4996775;28;20038;-66
2022/12/11 06:30:05;;;;;;;45.28;18.17;;;;;;;;;;4991967;28;20104;-67
2022/12/11 06:32:31;;;;;;;42.97;18.65;;;;;;;;;;4991030;28;20057;-67
2022/12/11 06:34:57;;;;;;;46.83;18.20;;;;;;;;;;4989243;28;20376;-68
2022/12/11 06:37:24;;;;;;;40.15;17.80;;;;;;;;;;4993241;28;20031;-67
2022/12/11 06:39:50;;;;;;;42.22;17.73;;;;;;;;;;4993338;28;20018;-67
2022/12/11 06:42:16;;;;;;;39.75;16.33;;;;;;;;;;4994670;28;20030;-66
2022/12/11 06:44:42;;;;;;;37.55;17.75;;;;;;;;;;5007797;28;20445;-67
2022/12/11 06:47:08;;;;;;;36.97;18.02;;;;;;;;;;5014192;28;20022;-66
2022/12/11 06:49:34;;;;;;;41.55;19.10;;;;;;;;;;5013503;28;20390;-68
2022/12/11 06:52:00;;;;;;;39.03;16.92;;;;;;;;;;4994286;28;20038;-67
2022/12/11 06:54:26;;;;;;;41.08;17.20;;;;;;;;;;4994253;28;20088;-68
2022/12/11 06:56:52;;;;;;;40.65;16.67;;;;;;;;;;4994177;28;20405;-66
2022/12/11 06:59:19;;;;;;;41.15;17.80;;;;;;;;;;4994042;28;20026;-67
2022/12/11 07:01:45;;;;;;;43.42;18.70;;;;;;;;;;4992744;28;20038;-68
2022/12/11 07:04:11;;;;;;;43.72;17.58;;;;;;;;;;5004725;28;20478;-67
2022/12/11 07:06:37;;;;;;;38.72;16.17;;;;;;;;;;5013383;28;20172;-68
2022/12/11 07:09:06;;;;;;;37.90;17.08;;;;;;;;;;5012041;28;20049;-68
2022/12/11 07:11:32;;;;;;;42.75;18.05;;;;;;;;;;5013216;28;20113;-66
2022/12/11 07:14:02;;;;;;;35.72;16.48;;;;;;;;;;5011948;28;20112;-68
2022/12/11 07:16:28;;;;;;;39.60;16.42;;;;;;;;;;5006766;28;20045;-68
2022/12/11 07:18:54;;;;;;;36.03;16.60;;;;;;;;;;4994016;28;20144;-66
2022/12/11 07:21:20;;;;;;;36.60;16.08;;;;;;;;;;4993963;28;20030;-65
2022/12/11 07:23:46;;;;;;;38.33;17.25;;;;;;;;;;4993652;28;20109;-67
2022/12/11 07:26:13;;;;;;;41.33;16.55;;;;;;;;;;4992701;28;20031;-67
2022/12/11 07:28:39;;;;;;;38.70;16.83;;;;;;;;;;5010816;28;20029;-66
2022/12/11 07:31:06;;;;;;;43.33;17.13;;;;;;;;;;5011527;28;20540;-68
2022/12/11 07:33:32;;;;;;;36.65;16.50;;;;;;;;;;5012916;28;20026;-67
2022/12/11 07:36:01;;;;;;;38.50;18.30;;;;;;;;;;5013170;28;20470;-67
2022/12/11 07:38:26;;;;;;;35.97;14.20;;;;;;;;;;5011913;28;20022;-66
2022/12/11 07:40:52;;;;;;;40.53;16.73;;;;;;;;;;5010742;28;20430;-67
2022/12/11 07:43:18;;;;;;;37.50;16.35;;;;;;;;;;4991823;28;20062;-67
2022/12/11 07:45:44;;;;;;;41.85;17.80;;;;;;;;;;4993265;28;20081;-68
2022/12/11 07:48:11;;;;;;;36.13;15.70;;;;;;;;;;5001082;28;20483;-67
2022/12/11 07:50:37;;;;;;;36.50;16.67;;;;;;;;;;5012586;28;20108;-67
2022/12/11 07:53:03;;;;;;;45.05;18.90;;;;;;;;;;5012359;28;20070;-67
2022/12/11 07:55:29;;;;;;;34.13;17.60;;;;;;;;;;5012519;28;20026;-61
2022/12/11 07:57:55;;;;;;;38.95;17.48;;;;;;;;;;5012571;28;20501;-62
2022/12/11 08:00:21;;;;;;;45.25;19.02;;;;;;;;;;5012408;28;20026;-63
2022/12/11 08:02:47;;;;;;;36.03;16.05;;;;;;;;;;5012680;28;20025;-61
2022/12/11 08:05:13;;;;;;;36.55;17.40;;;;;;;;;;5012095;28;20081;-61
2022/12/11 08:07:39;;;;;;;42.13;18.92;;;;;;;;;;5012911;28;20479;-61
2022/12/11 08:10:06;;;;;;;37.85;16.83;;;;;;;;;;5012623;28;20037;-62
2022/12/11 08:12:32;;;;;;;46.33;20.50;;;;;;;;;;4998885;28;20038;-63
2022/12/11 08:14:58;;;;;;;42.30;19.33;;;;;;;;;;4992424;28;20066;-61
2022/12/11 08:17:23;;;;;;;39.75;18.85;;;;;;;;;;4992988;28;20391;-61
2022/12/11 08:19:49;;;;;;;44.60;18.55;;;;;;;;;;4991819;28;20118;-70
2022/12/11 08:22:15;;;;;;;42.33;19.52;;;;;;;;;;4993091;28;20030;-70
2022/12/11 08:24:41;;;;;;;44.08;19.92;;;;;;;;;;4992551;28;20391;-69
2022/12/11 08:27:07;;;;;;;39.42;17.70;;;;;;;;;;5000797;28;20034;-71
2022/12/11 08:29:33;;;;;;;42.83;19.50;;;;;;;;;;5002931;28;20056;-71
2022/12/11 08:31:59;;;;;;;41.58;21.17;;;;;;;;;;4999696;28;20030;-69
2022/12/11 08:34:25;;;;;;;38.70;18.50;;;;;;;;;;5012358;28;20497;-70
2022/12/11 08:36:51;;;;;;;41.72;17.38;;;;;;;;;;5001272;28;20057;-70
2022/12/11 08:39:17;;;;;;;36.72;18.00;;;;;;;;;;5002486;28;20025;-70
2022/12/11 08:41:44;;;;;;;41.92;19.15;;;;;;;;;;5000691;28;20435;-71
2022/12/11 08:44:11;;;;;;;43.45;18.70;;;;;;;;;;5006793;28;20030;-70
2022/12/11 08:46:37;;;;;;;45.22;21.10;;;;;;;;;;5005812;28;20029;-68
2022/12/11 08:49:03;;;;;;;47.92;20.30;;;;;;;;;;5010420;28;20049;-71
2022/12/11 08:51:30;;;;;;;46.67;19.73;;;;;;;;;;5011672;28;20022;-71
2022/12/11 08:53:59;;;;;;;39.88;19.42;;;;;;;;;;5011237;28;20038;-70
2022/12/11 08:56:26;;;;;;;39.42;19.20;;;;;;;;;;5011748;28;20420;-71
2022/12/11 08:58:52;;;;;;;46.58;21.52;;;;;;;;;;5012642;28;20025;-69
2022/12/11 09:01:23;;;;;;;45.78;20.33;;;;;;;;;;5010780;28;20045;-69
2022/12/11 09:03:49;;;;;;;46.25;20.50;;;;;;;;;;5010228;28;20078;-69
2022/12/11 09:06:16;;;;;;;45.85;21.05;;;;;;;;;;5011629;28;20516;-69
2022/12/11 09:08:43;;;;;;;44.08;19.10;;;;;;;;;;5011574;28;20030;-68
2022/12/11 09:11:11;;;;;;;42.40;20.25;;;;;;;;;;5010097;28;20026;-71
2022/12/11 09:13:38;;;;;;;44.80;19.63;;;;;;;;;;5010492;28;20026;-70
2022/12/11 09:16:05;;;;;;;44.40;20.88;;;;;;;;;;5003147;28;20061;-70
2022/12/11 09:18:31;;;;;;;42.00;18.88;;;;;;;;;;5011619;28;20521;-70
2022/12/11 09:21:01;;;;;;;45.95;20.80;;;;;;;;;;5011625;28;20025;-70
2022/12/11 09:23:27;;;;;;;48.22;20.63;;;;;;;;;;5011431;28;20127;-70
2022/12/11 09:25:53;;;;;;;49.65;22.23;;;;;;;;;;5011891;28;20529;-69
2022/12/11 09:28:19;;;;;;;54.58;20.80;;;;;;;;;;5010526;28;20026;-66
2022/12/11 09:30:45;;;;;;;48.78;22.23;;;;;;;;;;5011377;28;20040;-65
2022/12/11 09:33:11;;;;;;;48.63;20.65;;;;;;;;;;5011265;28;20030;-68
2022/12/11 09:35:37;;;;;;;52.80;22.17;;;;;;;;;;5010081;28;20014;-68
2022/12/11 09:38:03;;;;;;;52.00;21.08;;;;;;;;;;5009937;28;20049;-69
2022/12/11 09:40:29;;;;;;;43.92;19.85;;;;;;;;;;5011082;28;20076;-69
2022/12/11 09:43:27;;;;;;;52.60;22.83;;;;;;;;;;5006292;28;20030;-69
2022/12/11 09:45:55;;;;;;;44.60;20.30;;;;;;;;;;4977587;28;20046;-67
2022/12/11 09:48:22;;;;;;;45.70;21.13;;;;;;;;;;4999747;28;20101;-68
2022/12/11 09:50:50;;;;;;;44.23;24.43;;;;;;;;;;4991150;28;20085;-68
2022/12/11 09:53:18;;;;;;;47.35;20.67;;;;;;;;;;4989560;28;20022;-67
2022/12/11 09:55:49;;;;;;;51.38;21.30;;;;;;;;;;4990976;28;20467;-68
2022/12/11 09:58:25;;;;;;;46.08;22.42;;;;;;;;;;4990831;28;20033;-70
2022/12/11 10:01:11;;;;;;;49.55;22.30;;;;;;;;;;4991390;28;20041;-68
2022/12/11 10:03:46;;;;;;;51.20;23.40;;;;;;;;;;4990878;28;20034;-68
2022/12/11 10:06:15;;;;;;;55.85;22.65;;;;;;;;;;4991193;28;20066;-68
2022/12/11 10:08:41;;;;;;;50.60;20.63;;;;;;;;;;4991436;28;20022;-68
2022/12/11 10:11:16;;;;;;;51.72;23.40;;;;;;;;;;4995046;28;20026;-68
2022/12/11 10:14:03;;;;;;;58.70;26.35;;;;;;;;;;5013228;28;20464;-67
2022/12/11 10:16:29;;;;;;;50.97;23.00;;;;;;;;;;4984028;28;20109;-68
2022/12/11 10:18:55;;;;;;;51.40;24.13;;;;;;;;;;5013806;28;20129;-68
2022/12/11 10:21:21;;;;;;;48.28;23.77;;;;;;;;;;5014800;28;20022;-68
2022/12/11 10:23:53;;;;;;;49.00;22.95;;;;;;;;;;4998913;28;20552;-68
2022/12/11 10:26:20;;;;;;;55.78;23.60;;;;;;;;;;4995506;28;20101;-68
2022/12/11 10:28:46;;;;;;;55.15;24.90;;;;;;;;;;4995130;28;20044;-66
2022/12/11 10:31:28;;;;;;;56.75;25.02;;;;;;;;;;4993783;28;20053;-68
2022/12/11 10:34:01;;;;;;;51.42;22.92;;;;;;;;;;4993514;28;20022;-68
2022/12/11 10:36:27;;;;;;;59.97;23.98;;;;;;;;;;4994658;28;20207;-69
2022/12/11 10:38:53;;;;;;;51.45;23.17;;;;;;;;;;4995106;28;20027;-68
2022/12/11 10:41:23;;;;;;;58.58;24.42;;;;;;;;;;4994922;28;20033;-69
2022/12/11 10:43:50;;;;;;;54.13;24.27;;;;;;;;;;4996408;28;20057;-68
2022/12/11 10:46:19;;;;;;;65.97;25.00;;;;;;;;;;4993421;28;20030;-68
2022/12/11 10:48:56;;;;;;;58.92;26.40;;;;;;;;;;4994996;28;20038;-69
2022/12/11 10:51:23;;;;;;;56.28;26.33;;;;;;;;;;4994353;28;20034;-69
2022/12/11 10:53:51;;;;;;;53.97;26.37;;;;;;;;;;4993078;28;20026;-69
2022/12/11 10:56:24;;;;;;;53.05;25.95;;;;;;;;;;4994713;28;20363;-69
2022/12/11 10:58:50;;;;;;;64.63;25.85;;;;;;;;;;4994372;28;20046;-69
2022/12/11 11:01:19;;;;;;;57.00;24.33;;;;;;;;;;4995024;28;20053;-69
2022/12/11 11:03:54;;;;;;;58.97;23.40;;;;;;;;;;4994072;28;20081;-68
2022/12/11 11:06:21;;;;;;;58.17;25.67;;;;;;;;;;4993011;28;20030;-69
2022/12/11 11:08:48;;;;;;;56.63;25.52;;;;;;;;;;4994757;28;20050;-68
2022/12/11 11:11:22;;;;;;;52.97;24.25;;;;;;;;;;4999054;28;20033;-68
2022/12/11 11:13:48;;;;;;;57.83;26.85;;;;;;;;;;5012482;28;20018;-68
2022/12/11 11:16:16;;;;;;;55.38;28.02;;;;;;;;;;4993855;28;20046;-68
2022/12/11 11:18:48;;;;;;;61.67;28.50;;;;;;;;;;4993824;28;20038;-69
2022/12/11 11:21:18;;;;;;;58.85;26.20;;;;;;;;;;4993981;28;20035;-65
2022/12/11 11:23:45;;;;;;;63.72;24.63;;;;;;;;;;4993032;28;20105;-68
2022/12/11 11:26:11;;;;;;;58.55;28.02;;;;;;;;;;4993050;28;20027;-69
2022/12/11 11:28:39;;;;;;;57.10;25.85;;;;;;;;;;4995039;28;20497;-68
2022/12/11 11:31:08;;;;;;;65.15;30.05;;;;;;;;;;4994142;28;20034;-68
2022/12/11 11:33:34;;;;;;;59.17;25.83;;;;;;;;;;4993537;28;20033;-68
2022/12/11 11:36:05;;;;;;;57.58;24.83;;;;;;;;;;4993877;28;20031;-68
2022/12/11 11:38:37;;;;;;;63.00;28.15;;;;;;;;;;4994510;28;20096;-68
2022/12/11 11:41:13;;;;;;;57.83;28.20;;;;;;;;;;4993812;28;20102;-70
2022/12/11 11:43:43;;;;;;;55.80;26.88;;;;;;;;;;4993694;28;20033;-66
2022/12/11 11:46:15;;;;;;;54.13;26.08;;;;;;;;;;4999918;28;20520;-68
2022/12/11 11:48:47;;;;;;;62.08;27.10;;;;;;;;;;5012494;28;20486;-68
2022/12/11 11:51:15;;;;;;;58.75;28.52;;;;;;;;;;5013530;28;20029;-69
2022/12/11 11:53:44;;;;;;;61.15;27.27;;;;;;;;;;5002551;28;20053;-69
2022/12/11 11:56:10;;;;;;;60.85;28.10;;;;;;;;;;4993883;28;20113;-69
2022/12/11 11:58:42;;;;;;;53.80;27.58;;;;;;;;;;4994127;28;20455;-68
2022/12/11 12:01:14;;;;;;;63.70;25.52;;;;;;;;;;5003204;28;20025;-67
2022/12/11 12:03:41;;;;;;;58.13;27.23;;;;;;;;;;5012925;28;20029;-68
2022/12/11 12:06:13;;;;;;;55.85;26.83;;;;;;;;;;5034743;23;20054;-62
2022/12/11 12:08:48;;;;;;;58.22;25.63;;;;;;;;;;5013549;28;20084;-62
2022/12/11 12:11:17;;;;;;;48.70;26.73;;;;;;;;;;5013488;28;20544;-59
2022/12/11 12:13:49;;;;;;;65.43;28.05;;;;;;;;;;5013375;28;20029;-61
2022/12/11 12:16:21;;;;;;;58.97;25.45;;;;;;;;;;5002453;28;20037;-61
2022/12/11 12:18:47;;;;;;;59.55;25.23;;;;;;;;;;5002913;28;20022;-64
2022/12/11 12:21:24;;;;;;;54.05;24.33;;;;;;;;;;5002189;28;20118;-54
2022/12/11 12:24:00;;;;;;;59.15;26.58;;;;;;;;;;5002035;28;20022;-61
2022/12/11 12:26:32;;;;;;;53.75;26.45;;;;;;;;;;5002178;28;20034;-63
2022/12/11 12:29:17;;;;;;;64.70;27.50;;;;;;;;;;5000588;28;20091;-60
2022/12/11 12:32:01;;;;;;;58.53;26.67;;;;;;;;;;4993619;28;20479;-61
2022/12/11 12:34:36;;;;;;;63.80;27.83;;;;;;;;;;4993036;28;20042;-63
2022/12/11 12:37:08;;;;;;;54.75;24.92;;;;;;;;;;4993566;28;20026;-63
2022/12/11 12:39:37;;;;;;;58.45;25.30;;;;;;;;;;4992651;28;20027;-63
2022/12/11 12:42:14;;;;;;;54.45;26.13;;;;;;;;;;4993428;28;20176;-61
2022/12/11 12:44:46;;;;;;;59.42;24.88;;;;;;;;;;4990869;28;20026;-65
2022/12/11 12:47:14;;;;;;;59.22;28.67;;;;;;;;;;4991549;28;20034;-64
2022/12/11 12:49:42;;;;;;;64.18;27.77;;;;;;;;;;4992431;28;20049;-61
2022/12/11 12:52:13;;;;;;;56.35;24.55;;;;;;;;;;4991680;28;20108;-61
2022/12/11 12:54:40;;;;;;;57.45;25.98;;;;;;;;;;4991583;28;20113;-63
2022/12/11 12:57:06;;;;;;;58.35;25.60;;;;;;;;;;4993301;28;20045;-60
2022/12/11 12:59:32;;;;;;;54.35;24.25;;;;;;;;;;4987822;28;20023;-62
2022/12/11 13:02:00;;;;;;;57.47;26.27;;;;;;;;;;4973661;28;20118;-62
2022/12/11 13:04:35;;;;;;;57.75;24.63;;;;;;;;;;4972199;28;20039;-62
2022/12/11 13:07:13;;;;;;;56.63;26.35;;;;;;;;;;4972223;28;20082;-62
2022/12/11 13:09:39;;;;;;;51.63;24.80;;;;;;;;;;4973265;28;20419;-60
2022/12/11 13:12:11;;;;;;;56.53;26.48;;;;;;;;;;4984380;28;20109;-63
2022/12/11 13:14:37;;;;;;;57.22;24.83;;;;;;;;;;4992535;28;20113;-63
2022/12/11 13:17:06;;;;;;;62.20;26.02;;;;;;;;;;4991605;28;20618;-64
2022/12/11 13:19:32;;;;;;;;;;;;;;;;;;4993215;28;20026;-61
2022/12/11 13:22:01;;;;;;;62.10;26.70;;;;;;;;;;4991611;28;20040;-61
2022/12/11 13:24:28;;;;;;;62.47;26.15;;;;;;;;;;4990089;28;20026;-63
2022/12/11 13:26:54;;;;;;;58.53;28.08;;;;;;;;;;4992824;28;20061;-62
2022/12/11 13:29:50;;;;;;;61.00;25.85;;;;;;;;;;4992740;28;20027;-63
2022/12/11 13:32:16;;;;;;;59.67;26.27;;;;;;;;;;4988102;28;20100;-59
2022/12/11 13:34:43;;;;;;;63.20;27.60;;;;;;;;;;4992572;28;20027;-61
2022/12/11 13:37:28;;;;;;;62.10;26.42;;;;;;;;;;4991866;28;20501;-62
2022/12/11 13:39:55;;;;;;;56.47;25.65;;;;;;;;;;4992514;28;20026;-61
2022/12/11 13:42:32;;;;;;;62.50;26.50;;;;;;;;;;4991163;28;20034;-62
2022/12/11 13:44:59;;;;;;;62.35;26.58;;;;;;;;;;4975307;28;20054;-62
2022/12/11 13:47:26;;;;;;;55.67;25.65;;;;;;;;;;4972543;28;20030;-63
2022/12/11 13:49:59;;;;;;;71.57;29.45;;;;;;;;;;4973167;28;20042;-63
2022/12/11 13:52:26;;;;;;;75.57;29.52;;;;;;;;;;4973079;28;20121;-63
2022/12/11 13:54:53;;;;;;;64.90;29.05;;;;;;;;;;4972971;28;20023;-62
2022/12/11 13:57:24;;;;;;;57.92;26.88;;;;;;;;;;4971493;28;20031;-64
2022/12/11 13:59:54;;;;;;;66.57;27.65;;;;;;;;;;4972657;28;20392;-62
2022/12/11 14:02:23;;;;;;;57.17;25.95;;;;;;;;;;4973094;28;20464;-63
2022/12/11 14:04:49;;;;;;;;;;;;;;;;;;4973149;28;20058;-64
2022/12/11 14:07:16;;;;;;;63.42;29.33;;;;;;;;;;4971501;28;20363;-64
2022/12/11 14:09:43;;;;;;;72.20;30.77;;;;;;;;;;4971653;28;20038;-63
2022/12/11 14:12:17;;;;;;;65.47;25.70;;;;;;;;;;4973623;28;20041;-61
2022/12/11 14:14:46;;;;;;;68.10;29.73;;;;;;;;;;4972603;28;20023;-61
2022/12/11 14:17:14;;;;;;;63.13;29.63;;;;;;;;;;4971236;28;20022;-62
2022/12/11 14:19:41;;;;;;;63.87;29.07;;;;;;;;;;4972651;28;20034;-63
2022/12/11 14:22:16;;;;;;;65.90;29.33;;;;;;;;;;4973001;28;20109;-62
2022/12/11 14:24:48;;;;;;;64.57;27.73;;;;;;;;;;4975891;28;20399;-62
2022/12/11 14:27:16;;;;;;;65.97;27.52;;;;;;;;;;4974161;28;20035;-62
2022/12/11 14:29:42;;;;;;;64.47;31.50;;;;;;;;;;4973115;28;20031;-62
2022/12/11 14:32:08;;;;;;;67.15;28.58;;;;;;;;;;4972567;28;20030;-61